Time;durP1;ratioP1;P1;durP2;ratioP2;P2;SDS_P1;SDS_P2;PMS_P1;PMS_P2;Temp;Humidity;BMP_temperature;BMP_pressure;BME280_temperature;BME280_humidity;BME280_pressure;Samples;Min_cycle;Max_cycle;Signal;HPM_P1;HPM_P2
2021/04/18 00:02:17;;;;;;;50.20;31.55;;;;;;;5.94;100.00;99982.84;1762040;78;21068;-46
2021/04/18 00:09:11;;;;;;;45.92;31.37;;;;;;;6.04;100.00;99974.52;1756420;79;22138;-48
2021/04/18 00:11:42;;;;;;;48.08;30.43;;;;;;;6.01;100.00;99979.06;1704911;82;21538;-58
2021/04/18 00:14:11;;;;;;;44.55;30.57;;;;;;;6.00;100.00;99975.97;1699732;82;21227;-59
2021/04/18 00:16:39;;;;;;;47.10;30.57;;;;;;;5.99;100.00;99970.20;1703075;82;21056;-56
2021/04/18 00:19:10;;;;;;;46.05;30.60;;;;;;;6.00;100.00;99978.66;1704092;82;21021;-57
2021/04/18 00:21:38;;;;;;;52.33;31.87;;;;;;;5.99;100.00;99975.56;1651689;84;21630;-57
2021/04/18 00:24:07;;;;;;;49.33;31.57;;;;;;;6.00;100.00;99971.95;1647119;84;21625;-59
2021/04/18 00:26:35;;;;;;;51.48;32.03;;;;;;;5.98;100.00;99979.17;1653719;85;21380;-57
2021/04/18 00:29:04;;;;;;;49.83;33.08;;;;;;;5.95;100.00;99972.55;1647746;85;21749;-57
2021/04/18 00:31:32;;;;;;;52.62;31.42;;;;;;;5.97;100.00;99974.28;1651178;85;21025;-57
2021/04/18 00:34:00;;;;;;;48.13;30.88;;;;;;;5.99;100.00;99978.23;1651841;85;21038;-56
2021/04/18 00:36:30;;;;;;;47.17;30.65;;;;;;;5.96;100.00;99978.31;1654499;84;21137;-59
2021/04/18 00:38:58;;;;;;;45.52;30.48;;;;;;;5.91;100.00;99981.55;1657414;84;21395;-57
2021/04/18 00:41:27;;;;;;;48.52;31.93;;;;;;;5.93;100.00;99975.73;1659546;84;21018;-57
2021/04/18 00:43:55;;;;;;;44.25;29.90;;;;;;;5.97;100.00;99974.74;1639507;86;21159;-57
2021/04/18 00:46:22;;;;;;;49.42;29.60;;;;;;;5.98;100.00;99974.69;1652532;85;21455;-57
2021/04/18 00:48:51;;;;;;;45.33;29.90;;;;;;;5.97;100.00;99974.28;1655254;85;21002;-57
2021/04/18 00:51:19;;;;;;;45.20;28.07;;;;;;;5.95;100.00;99976.56;1649118;85;22003;-57
2021/04/18 00:53:47;;;;;;;41.83;29.37;;;;;;;5.96;100.00;99979.66;1652724;85;21018;-58
2021/04/18 00:56:16;;;;;;;44.48;29.42;;;;;;;5.94;100.00;99977.48;1650571;84;21495;-56
2021/04/18 00:58:43;;;;;;;44.83;27.90;;;;;;;5.92;100.00;99977.55;1647085;85;20990;-57
2021/04/18 01:01:12;;;;;;;42.60;29.27;;;;;;;5.92;100.00;99969.52;1622684;84;21191;-57
2021/04/18 01:03:40;;;;;;;41.25;28.67;;;;;;;5.90;100.00;99962.39;1650434;85;21473;-56
2021/04/18 01:06:10;;;;;;;40.48;26.45;;;;;;;5.91;100.00;99964.14;1648180;85;21153;-57
2021/04/18 01:08:47;;;;;;;42.83;28.15;;;;;;;5.91;100.00;99962.80;1638203;85;21165;-57
2021/04/18 01:11:15;;;;;;;41.42;26.68;;;;;;;5.87;100.00;99954.47;1688224;82;21078;-57
2021/04/18 01:13:44;;;;;;;42.80;27.15;;;;;;;5.84;100.00;99949.19;1681616;83;21137;-57
2021/04/18 01:16:15;;;;;;;42.75;27.80;;;;;;;5.82;100.00;99940.34;1682255;82;21376;-59
2021/04/18 01:18:44;;;;;;;40.85;28.27;;;;;;;5.82;100.00;99943.02;1681406;82;21185;-57
2021/04/18 01:21:13;;;;;;;42.13;26.55;;;;;;;5.82;100.00;99937.20;1681118;83;20995;-57
2021/04/18 01:23:50;;;;;;;40.80;26.60;;;;;;;5.83;100.00;99948.31;1681539;83;21192;-58
2021/04/18 01:26:23;;;;;;;41.77;27.17;;;;;;;5.84;100.00;99942.50;1681716;82;21161;-58
2021/04/18 01:28:53;;;;;;;39.98;25.92;;;;;;;5.81;100.00;99943.94;1685010;82;21562;-58
2021/04/18 01:31:21;;;;;;;37.28;26.02;;;;;;;5.81;100.00;99938.59;1685795;83;21578;-57
2021/04/18 01:33:49;;;;;;;38.38;25.88;;;;;;;5.84;100.00;99934.47;1688792;83;21054;-56
2021/04/18 01:36:19;;;;;;;38.42;25.48;;;;;;;5.85;100.00;99942.45;1687594;83;21136;-58
2021/04/18 01:38:48;;;;;;;39.23;25.48;;;;;;;5.87;100.00;99938.41;1689194;82;21063;-57
2021/04/18 01:41:16;;;;;;;37.05;25.35;;;;;;;5.86;100.00;99925.92;1681557;83;21379;-57
2021/04/18 01:43:45;;;;;;;41.08;26.25;;;;;;;5.87;100.00;99926.37;1684433;83;21604;-57
2021/04/18 01:46:13;;;;;;;35.78;23.67;;;;;;;5.90;100.00;99915.55;1692229;82;21011;-57
2021/04/18 01:48:42;;;;;;;38.15;24.72;;;;;;;5.90;100.00;99914.22;1689365;83;21149;-56
2021/04/18 01:51:10;;;;;;;34.85;24.18;;;;;;;5.90;100.00;99908.86;1689614;83;21121;-57
2021/04/18 01:53:39;;;;;;;34.50;23.05;;;;;;;5.89;100.00;99907.11;1664497;83;21468;-45
2021/04/18 01:56:09;;;;;;;33.23;22.15;;;;;;;5.90;100.00;99903.51;1684142;82;21203;-44
2021/04/18 01:58:38;;;;;;;32.23;22.10;;;;;;;5.90;100.00;99903.05;1689155;83;21030;-44
2021/04/18 02:01:25;;;;;;;35.23;21.77;;;;;;;5.91;100.00;99908.87;1687123;82;21136;-44
2021/04/18 02:03:54;;;;;;;27.93;20.88;;;;;;;5.91;100.00;99905.26;1686393;84;21118;-44
2021/04/18 02:06:23;;;;;;;30.43;20.97;;;;;;;5.92;100.00;99907.08;1680814;83;21383;-47
2021/04/18 02:08:53;;;;;;;27.65;20.62;;;;;;;5.93;100.00;99910.16;1687569;82;21180;-44
2021/04/18 02:11:23;;;;;;;28.70;20.25;;;;;;;5.92;100.00;99912.42;1695943;82;21180;-45
2021/04/18 02:13:53;;;;;;;27.77;20.48;;;;;;;5.93;100.00;99906.14;1694851;82;21125;-46
2021/04/18 02:16:34;;;;;;;28.38;18.98;;;;;;;6.00;100.00;99905.03;1800359;76;22713;-46
2021/04/18 02:19:04;;;;;;;26.07;18.57;;;;;;;5.95;100.00;99896.27;1769396;79;21009;-47
2021/04/18 02:21:34;;;;;;;24.87;18.23;;;;;;;5.95;100.00;99898.94;1767003;79;22177;-47
2021/04/18 02:24:02;;;;;;;25.52;18.65;;;;;;;5.95;100.00;99893.58;1763688;79;21001;-48
2021/04/18 02:26:32;;;;;;;26.35;18.85;;;;;;;5.97;100.00;99895.77;1761652;79;20992;-47
2021/04/18 02:29:01;;;;;;;26.17;17.45;;;;;;;5.96;100.00;99882.82;1761891;79;21569;-47
2021/04/18 02:31:31;;;;;;;26.70;18.65;;;;;;;5.99;100.00;99887.23;1762497;79;20969;-46
2021/04/18 02:33:59;;;;;;;26.70;18.90;;;;;;;5.98;100.00;99888.16;1760102;79;21330;-57
2021/04/18 02:36:30;;;;;;;23.07;16.93;;;;;;;5.98;100.00;99890.83;1763568;79;21575;-57
2021/04/18 02:38:58;;;;;;;25.75;17.55;;;;;;;5.99;100.00;99887.23;1768199;79;21945;-57
2021/04/18 02:41:26;;;;;;;23.27;17.62;;;;;;;6.00;100.00;99885.83;1772720;79;21561;-59
2021/04/18 02:43:55;;;;;;;24.10;18.48;;;;;;;6.01;100.00;99882.69;1770516;79;20988;-57
2021/04/18 02:46:23;;;;;;;24.15;17.67;;;;;;;6.03;100.00;99875.05;1766105;79;21425;-57
2021/04/18 02:48:53;;;;;;;27.20;17.45;;;;;;;6.02;100.00;99869.28;1766200;79;20981;-56
2021/04/18 02:51:21;;;;;;;27.02;17.92;;;;;;;6.03;100.00;99866.14;1768453;79;21538;-57
2021/04/18 02:53:50;;;;;;;23.38;18.35;;;;;;;6.03;100.00;99864.80;1769540;79;21533;-57
2021/04/18 02:56:19;;;;;;;25.77;17.85;;;;;;;6.00;100.00;99860.40;1767266;79;21566;-56
2021/04/18 02:58:52;;;;;;;21.73;15.83;;;;;;;5.99;100.00;99863.13;1761519;79;21387;-55
2021/04/18 03:01:21;;;;;;;23.62;17.62;;;;;;;5.98;100.00;99866.73;1749541;80;21562;-54
2021/04/18 03:03:50;;;;;;;23.60;16.77;;;;;;;5.98;100.00;99865.40;1748150;80;21163;-54
2021/04/18 03:06:20;;;;;;;23.20;16.87;;;;;;;5.96;100.00;99861.88;1761971;79;20930;-53
2021/04/18 03:08:49;;;;;;;21.02;15.78;;;;;;;5.97;100.00;99855.63;1765160;79;21032;-53
2021/04/18 03:11:18;;;;;;;24.95;16.77;;;;;;;5.95;100.00;99853.43;1760447;78;21368;-53
2021/04/18 03:13:48;;;;;;;22.48;16.23;;;;;;;5.94;100.00;99855.70;1731443;79;20969;-54
2021/04/18 03:16:16;;;;;;;23.47;16.67;;;;;;;5.94;100.00;99857.04;1765828;79;21751;-52
2021/04/18 03:18:44;;;;;;;25.20;16.45;;;;;;;5.93;100.00;99849.94;1770562;79;21155;-52
2021/04/18 03:21:12;;;;;;;20.30;15.25;;;;;;;5.93;100.00;99855.29;1766753;79;21088;-54
2021/04/18 03:23:41;;;;;;;21.87;15.60;;;;;;;5.93;100.00;99867.34;1771010;79;21444;-44
2021/04/18 03:26:09;;;;;;;22.07;15.50;;;;;;;5.93;100.00;99861.98;1765382;79;21383;-44
2021/04/18 03:28:38;;;;;;;21.23;14.95;;;;;;;5.93;100.00;99861.98;1768103;79;21028;-44
2021/04/18 03:31:07;;;;;;;22.45;15.93;;;;;;;5.93;100.00;99863.32;1760842;79;21630;-44
2021/04/18 03:33:38;;;;;;;23.90;16.17;;;;;;;5.92;100.00;99866.46;1769140;79;21056;-44
2021/04/18 03:36:09;;;;;;;20.40;14.23;;;;;;;5.92;100.00;99866.92;1767460;79;21437;-45
2021/04/18 03:38:38;;;;;;;20.97;14.50;;;;;;;5.90;100.00;99870.92;1767131;79;21659;-45
2021/04/18 03:41:07;;;;;;;21.48;14.87;;;;;;;5.88;100.00;99860.73;1768737;79;21135;-45
2021/04/18 03:43:36;;;;;;;24.32;17.15;;;;;;;5.87;100.00;99849.63;1769780;79;20993;-45
2021/04/18 03:46:06;;;;;;;20.70;15.00;;;;;;;5.87;100.00;99855.44;1759410;79;21256;-45
2021/04/18 03:48:36;;;;;;;21.23;15.35;;;;;;;5.85;100.00;99858.14;1772562;79;21211;-45
2021/04/18 03:51:05;;;;;;;22.30;14.93;;;;;;;5.85;100.00;99850.11;1767480;78;21119;-45
2021/04/18 03:53:43;;;;;;;23.22;16.32;;;;;;;5.89;100.00;99853.58;1816776;76;22708;-45
2021/04/18 03:56:12;;;;;;;23.62;16.07;;;;;;;5.83;100.00;99860.46;1796800;77;21097;-47
2021/04/18 03:58:48;;;;;;;22.30;15.55;;;;;;;5.81;100.00;99858.30;1790980;79;21360;-47
2021/04/18 04:01:18;;;;;;;22.00;15.80;;;;;;;5.81;100.00;99858.30;1791514;77;21009;-46
2021/04/18 04:03:46;;;;;;;22.00;16.67;;;;;;;5.82;100.00;99860.05;1793246;77;21037;-46
2021/04/18 04:06:17;;;;;;;19.98;14.87;;;;;;;5.82;100.00;99857.38;1791675;79;21017;-48
2021/04/18 04:08:47;;;;;;;22.80;15.70;;;;;;;5.82;100.00;99857.38;1731568;80;21048;-47
2021/04/18 04:11:17;;;;;;;20.72;14.80;;;;;;;5.83;100.00;99856.45;1748799;79;21453;-46
2021/04/18 04:13:48;;;;;;;19.67;13.48;;;;;;;5.85;100.00;99857.27;1738663;81;20993;-46
2021/04/18 04:16:18;;;;;;;17.60;13.38;;;;;;;5.84;100.00;99855.52;1791197;79;20985;-48
2021/04/18 04:18:47;;;;;;;19.35;13.30;;;;;;;5.85;100.00;99859.94;1781029;79;21228;-47
2021/04/18 04:21:31;;;;;;;18.80;13.22;;;;;;;5.90;100.00;99862.89;1797237;76;23279;-46
2021/04/18 04:24:16;;;;;;;19.23;13.90;;;;;;;5.85;100.00;99867.97;1762692;79;20982;-46
2021/04/18 04:26:44;;;;;;;17.98;13.05;;;;;;;5.85;100.00;99865.30;1758877;79;21369;-47
2021/04/18 04:29:11;;;;;;;17.77;13.25;;;;;;;5.86;100.00;99863.03;1762311;79;21056;-47
2021/04/18 04:31:41;;;;;;;19.15;13.40;;;;;;;5.86;100.00;99850.98;1760662;79;21549;-47
2021/04/18 04:34:09;;;;;;;20.80;14.58;;;;;;;5.88;100.00;99853.17;1759089;79;21021;-46
2021/04/18 04:36:37;;;;;;;21.33;14.10;;;;;;;5.88;100.00;99847.82;1760764;79;21037;-46
2021/04/18 04:39:06;;;;;;;20.27;14.13;;;;;;;5.90;100.00;99847.30;1764025;79;21365;-44
2021/04/18 04:41:34;;;;;;;19.50;14.23;;;;;;;5.91;100.00;99845.03;1761914;79;20997;-45
2021/04/18 04:44:02;;;;;;;16.35;12.50;;;;;;;5.92;100.00;99838.82;1761449;79;20993;-45
2021/04/18 04:46:30;;;;;;;16.87;12.30;;;;;;;5.92;100.00;99838.36;1760870;79;21013;-46
2021/04/18 04:48:59;;;;;;;15.83;12.37;;;;;;;5.94;100.00;99832.95;1758176;79;21133;-46
2021/04/18 04:51:27;;;;;;;16.37;12.25;;;;;;;5.95;100.00;99832.89;1762155;79;21195;-46
2021/04/18 04:53:54;;;;;;;19.35;12.03;;;;;;;5.99;100.00;99839.91;1762334;79;21608;-46
2021/04/18 04:56:22;;;;;;;19.02;12.40;;;;;;;6.04;100.00;99845.13;1759929;79;20966;-46
2021/04/18 04:58:52;;;;;;;16.37;12.43;;;;;;;6.07;100.00;99836.98;1760767;79;21569;-45
2021/04/18 05:01:20;;;;;;;18.02;12.82;;;;;;;6.11;100.00;99838.66;1759472;79;21152;-47
2021/04/18 05:03:48;;;;;;;18.92;12.60;;;;;;;6.16;100.00;99828.69;1763841;79;22355;-46
2021/04/18 05:06:18;;;;;;;18.00;12.95;;;;;;;6.21;100.00;99829.88;1766547;79;21037;-48
2021/04/18 05:08:46;;;;;;;15.75;12.78;;;;;;;6.26;100.00;99829.28;1760691;79;21461;-46
2021/04/18 05:11:14;;;;;;;15.48;11.90;;;;;;;6.33;100.00;99830.83;1764438;79;21049;-45
2021/04/18 05:13:42;;;;;;;15.90;12.40;;;;;;;6.37;100.00;99819.56;1764334;79;20977;-46
2021/04/18 05:16:10;;;;;;;18.82;13.00;;;;;;;6.41;100.00;99823.91;1761307;79;21419;-46
2021/04/18 05:18:43;;;;;;;17.67;12.53;;;;;;;6.46;100.00;99825.98;1765053;79;21021;-46
2021/04/18 05:21:12;;;;;;;16.52;12.03;;;;;;;6.50;100.00;99820.94;1765191;79;21009;-45
2021/04/18 05:23:40;;;;;;;18.00;13.00;;;;;;;6.54;100.00;99826.59;1765018;79;21143;-45
2021/04/18 05:26:09;;;;;;;17.02;12.82;;;;;;;6.57;100.00;99827.84;1761638;79;21625;-45
2021/04/18 05:28:38;;;;;;;15.63;11.57;;;;;;;6.60;100.00;99829.06;1763867;79;22109;-44
2021/04/18 05:31:06;;;;;;;19.70;13.22;;;;;;;6.64;100.00;99822.68;1764391;79;21021;-45
2021/04/18 05:33:34;;;;;;;17.17;12.50;;;;;;;6.67;100.00;99822.59;1763997;79;21021;-45
2021/04/18 05:36:05;;;;;;;16.40;12.03;;;;;;;6.72;100.00;99810.38;1771670;79;21177;-59
2021/04/18 05:38:33;;;;;;;16.00;11.48;;;;;;;6.77;100.00;99805.28;1768707;79;21013;-58
2021/04/18 05:41:01;;;;;;;19.32;12.78;;;;;;;6.85;100.00;99808.16;1767305;79;22188;-54
2021/04/18 05:43:29;;;;;;;15.13;11.80;;;;;;;6.85;100.00;99815.72;1762894;79;21001;-57
2021/04/18 05:45:57;;;;;;;15.55;12.03;;;;;;;6.87;100.00;99812.55;1762567;79;21632;-58
2021/04/18 05:48:25;;;;;;;16.52;10.93;;;;;;;6.91;100.00;99815.98;1762781;79;21005;-57
2021/04/18 05:50:54;;;;;;;16.30;12.28;;;;;;;6.94;100.00;99814.55;1769373;79;21001;-56
2021/04/18 05:53:22;;;;;;;15.45;12.25;;;;;;;6.99;100.00;99807.22;1769671;79;22370;-56
2021/04/18 05:55:51;;;;;;;17.62;12.65;;;;;;;7.03;100.00;99814.20;1771648;79;21415;-58
2021/04/18 05:58:19;;;;;;;17.82;13.43;;;;;;;7.07;100.00;99814.05;1761680;79;21110;-57
2021/04/18 06:00:47;;;;;;;17.65;13.13;;;;;;;7.11;100.00;99813.48;1760530;79;21040;-58
2021/04/18 06:03:15;;;;;;;19.05;13.20;;;;;;;7.13;100.00;99811.62;1759972;79;20966;-60
2021/04/18 06:05:44;;;;;;;18.12;13.72;;;;;;;7.15;100.00;99804.88;1762025;79;21534;-58
2021/04/18 06:08:13;;;;;;;17.55;13.20;;;;;;;7.17;100.00;99796.30;1763618;79;20969;-58
2021/04/18 06:10:43;;;;;;;18.42;12.82;;;;;;;7.22;100.00;99799.23;1762022;79;20983;-58
2021/04/18 06:13:11;;;;;;;16.75;13.00;;;;;;;7.28;100.00;99792.30;1759524;79;21649;-58
2021/04/18 06:15:40;;;;;;;18.37;13.48;;;;;;;7.35;100.00;99789.83;1762084;79;21120;-57
2021/04/18 06:18:08;;;;;;;19.10;13.98;;;;;;;7.42;100.00;99792.28;1760005;79;21378;-56
2021/04/18 06:20:37;;;;;;;19.45;13.28;;;;;;;7.46;100.00;99789.90;1766676;78;21589;-57
2021/04/18 06:23:05;;;;;;;18.95;13.90;;;;;;;7.50;100.00;99790.17;1772210;78;21012;-61
2021/04/18 06:25:33;;;;;;;20.00;13.53;;;;;;;7.53;100.00;99787.39;1776869;78;21185;-59
2021/04/18 06:28:01;;;;;;;18.77;13.22;;;;;;;7.53;100.00;99782.02;1770036;78;21565;-57
2021/04/18 06:30:31;;;;;;;20.25;13.48;;;;;;;7.55;100.00;99788.19;1774163;78;21396;-58
2021/04/18 06:32:59;;;;;;;20.30;14.55;;;;;;;7.57;100.00;99779.64;1778642;78;21086;-58
2021/04/18 06:35:27;;;;;;;17.82;14.20;;;;;;;7.57;100.00;99780.98;1776010;78;21135;-58
2021/04/18 06:37:55;;;;;;;19.77;13.80;;;;;;;7.56;100.00;99782.79;1773155;78;20950;-58
2021/04/18 06:40:23;;;;;;;21.85;14.47;;;;;;;7.55;100.00;99775.65;1776146;78;20969;-59
2021/04/18 06:42:54;;;;;;;17.12;13.32;;;;;;;7.58;100.00;99774.67;1780503;78;21593;-57
2021/04/18 06:45:22;;;;;;;16.00;12.03;;;;;;;7.59;100.00;99773.73;1778121;78;20985;-59
2021/04/18 06:47:50;;;;;;;18.40;12.98;;;;;;;7.59;100.00;99780.45;1775472;78;21016;-58
2021/04/18 06:50:19;;;;;;;16.20;12.82;;;;;;;7.58;100.00;99777.36;1776608;78;21702;-60
2021/04/18 06:52:47;;;;;;;17.77;12.98;;;;;;;7.58;100.00;99777.36;1778957;78;21219;-52
2021/04/18 06:55:17;;;;;;;18.23;13.65;;;;;;;7.57;100.00;99775.61;1778768;78;21405;-58
2021/04/18 06:57:45;;;;;;;19.42;14.13;;;;;;;7.59;100.00;99787.16;1774431;78;21131;-58
2021/04/18 07:00:14;;;;;;;18.70;13.43;;;;;;;7.63;100.00;99788.80;1776624;78;21203;-60
2021/04/18 07:02:44;;;;;;;19.02;13.78;;;;;;;7.65;100.00;99781.55;1777319;78;21005;-56
2021/04/18 07:05:14;;;;;;;17.92;13.98;;;;;;;7.68;100.00;99784.12;1772718;78;21084;-55
2021/04/18 07:07:47;;;;;;;17.45;13.60;;;;;;;7.68;100.00;99785.94;1776359;78;21447;-53
2021/04/18 07:10:30;;;;;;;17.90;13.93;;;;;;;7.70;100.00;99782.25;1777998;78;21313;-53
2021/04/18 07:13:08;;;;;;;22.35;13.55;;;;;;;7.70;100.00;99790.30;1780811;78;20977;-52
2021/04/18 07:15:40;;;;;;;16.73;12.82;;;;;;;7.69;100.00;99783.19;1776954;78;21159;-54
2021/04/18 07:18:08;;;;;;;15.78;12.82;;;;;;;7.69;100.00;99789.91;1782676;78;21132;-53
2021/04/18 07:20:52;;;;;;;16.93;13.95;;;;;;;7.69;100.00;99787.22;1779619;78;21623;-49
2021/04/18 07:23:30;;;;;;;16.02;12.55;;;;;;;7.73;100.00;99776.78;1819477;76;22148;-48
2021/04/18 07:26:01;;;;;;;18.90;14.70;;;;;;;7.68;100.00;99777.42;1810355;77;20946;-47
2021/04/18 07:28:29;;;;;;;17.35;13.38;;;;;;;7.72;100.00;99774.13;1809338;77;21356;-49
2021/04/18 07:31:02;;;;;;;16.23;12.40;;;;;;;7.75;100.00;99775.37;1811891;79;20962;-49
2021/04/18 07:33:27;;;;;;;18.87;14.05;;;;;;;7.72;100.00;99776.34;1810427;79;21021;-47
2021/04/18 07:35:55;;;;;;;17.65;12.82;;;;;;;7.68;100.00;99781.45;1812658;77;20946;-50
2021/04/18 07:38:28;;;;;;;18.80;15.32;;;;;;;7.66;100.00;99784.63;1756310;79;21107;-48
2021/04/18 07:40:59;;;;;;;20.20;13.85;;;;;;;7.66;100.00;99785.98;1814443;77;21383;-48
2021/04/18 07:43:29;;;;;;;15.43;12.65;;;;;;;7.67;100.00;99789.09;1805498;77;20986;-50
2021/04/18 07:45:56;;;;;;;18.07;13.72;;;;;;;7.68;100.00;99786.81;1808500;78;21009;-50
2021/04/18 07:48:24;;;;;;;18.23;13.75;;;;;;;7.67;100.00;99778.36;1782314;79;21622;-48
2021/04/18 07:50:54;;;;;;;17.52;14.10;;;;;;;7.70;100.00;99782.25;1808980;78;21275;-50
2021/04/18 07:53:22;;;;;;;17.00;14.03;;;;;;;7.70;100.00;99784.94;1811183;79;21369;-50
2021/04/18 07:55:50;;;;;;;19.15;13.93;;;;;;;7.70;100.00;99778.22;1808861;78;21003;-50
2021/04/18 07:58:18;;;;;;;16.73;12.95;;;;;;;7.73;100.00;99781.27;1809850;79;20958;-49
2021/04/18 08:00:46;;;;;;;18.25;13.78;;;;;;;7.74;100.00;99783.89;1813450;78;20974;-50
2021/04/18 08:03:14;;;;;;;18.30;13.65;;;;;;;7.76;100.00;99787.38;1812611;79;21480;-53
2021/04/18 08:05:44;;;;;;;20.35;14.15;;;;;;;7.78;100.00;99788.22;1811713;79;21374;-49
2021/04/18 08:08:14;;;;;;;17.37;13.88;;;;;;;7.79;100.00;99791.30;1755567;79;21128;-51
2021/04/18 08:10:47;;;;;;;18.30;14.53;;;;;;;7.80;100.00;99793.52;1812465;78;21009;-51
2021/04/18 08:13:20;;;;;;;18.25;13.95;;;;;;;7.79;100.00;99792.65;1811074;79;21001;-52
2021/04/18 08:16:04;;;;;;;20.75;14.80;;;;;;;7.81;100.00;99788.08;1810608;77;21093;-51
2021/04/18 08:18:40;;;;;;;21.90;15.90;;;;;;;7.83;100.00;99785.36;1811499;77;21195;-52
2021/04/18 08:21:37;;;;;;;21.15;14.40;;;;;;;7.85;100.00;99792.41;1810433;77;21596;-60
2021/04/18 08:24:25;;;;;;;20.35;15.98;;;;;;;7.94;100.00;99793.88;1808979;78;22217;-59
2021/04/18 08:27:06;;;;;;;18.32;13.78;;;;;;;7.92;100.00;99786.80;1780196;79;21529;-58
2021/04/18 08:29:38;;;;;;;21.65;14.63;;;;;;;7.95;100.00;99784.88;1773181;80;21424;-60
2021/04/18 08:32:14;;;;;;;23.15;15.78;;;;;;;8.01;100.00;99786.45;1773782;78;22777;-61
2021/04/18 08:34:43;;;;;;;21.35;14.23;;;;;;;7.99;100.00;99788.30;1762131;80;20985;-64
2021/04/18 08:37:19;;;;;;;20.90;14.00;;;;;;;8.00;100.00;99783.36;1749740;80;21323;-60
2021/04/18 08:39:47;;;;;;;18.20;13.80;;;;;;;8.00;100.00;99788.73;1762436;80;21002;-58
2021/04/18 08:42:28;;;;;;;20.52;14.30;;;;;;;8.00;100.00;99785.57;1756996;80;21586;-60
2021/04/18 08:44:57;;;;;;;19.12;13.62;;;;;;;8.01;100.00;99783.76;1761632;80;20986;-61
2021/04/18 08:47:31;;;;;;;18.37;13.28;;;;;;;8.01;100.00;99782.41;1753468;80;21539;-61
2021/04/18 08:50:18;;;;;;;17.82;13.00;;;;;;;8.02;100.00;99784.16;1752357;80;21596;-60
2021/04/18 08:52:46;;;;;;;17.70;13.45;;;;;;;8.04;100.00;99786.30;1762852;80;21682;-59
2021/04/18 08:55:14;;;;;;;15.85;11.70;;;;;;;8.03;100.00;99782.75;1750552;80;21085;-59
2021/04/18 08:57:42;;;;;;;16.70;12.80;;;;;;;8.05;100.00;99774.66;1747774;80;21578;-58
2021/04/18 09:00:13;;;;;;;15.25;12.10;;;;;;;8.05;100.00;99774.19;1747517;80;21711;-57
2021/04/18 09:02:41;;;;;;;17.02;12.37;;;;;;;8.06;100.00;99781.30;1751897;80;21215;-57
2021/04/18 09:05:16;;;;;;;16.87;12.75;;;;;;;8.06;100.00;99782.64;1763245;80;21149;-57
2021/04/18 09:07:44;;;;;;;14.40;12.10;;;;;;;8.08;100.00;99784.78;1760913;80;21164;-56
2021/04/18 09:10:13;;;;;;;13.95;12.07;;;;;;;8.09;100.00;99784.31;1747202;80;21157;-56
2021/04/18 09:12:46;;;;;;;20.50;12.45;;;;;;;8.11;100.00;99786.02;1748321;80;21005;-56
2021/04/18 09:15:15;;;;;;;16.67;12.98;;;;;;;8.13;100.00;99781.92;1737457;80;21369;-56
2021/04/18 09:17:43;;;;;;;18.55;12.73;;;;;;;8.17;100.00;99774.16;1749183;80;21100;-55
2021/04/18 09:20:13;;;;;;;15.98;12.30;;;;;;;8.22;100.00;99782.03;1750225;80;21163;-57
2021/04/18 09:22:42;;;;;;;16.52;12.43;;;;;;;8.23;100.00;99775.25;1753583;80;21378;-60
2021/04/18 09:25:20;;;;;;;16.77;11.50;;;;;;;8.26;100.00;99773.80;1747351;80;21596;-60
2021/04/18 09:27:51;;;;;;;14.73;11.50;;;;;;;8.29;100.00;99779.02;1752422;80;21522;-60
2021/04/18 09:30:26;;;;;;;16.25;12.20;;;;;;;8.33;100.00;99785.16;1760940;80;21240;-60
2021/04/18 09:32:56;;;;;;;14.38;11.70;;;;;;;8.36;100.00;99788.64;1745958;81;21101;-60
2021/04/18 09:35:26;;;;;;;14.60;10.88;;;;;;;8.40;100.00;99787.55;1752043;81;21193;-61
2021/04/18 09:38:01;;;;;;;17.82;13.95;;;;;;;8.43;100.00;99795.11;1749238;81;20986;-61
2021/04/18 09:40:32;;;;;;;16.97;12.82;;;;;;;8.42;100.00;99802.77;1741930;81;21207;-61
2021/04/18 09:43:04;;;;;;;14.93;12.20;;;;;;;8.44;100.00;99800.41;1740773;81;20967;-57
2021/04/18 09:45:31;;;;;;;15.18;11.83;;;;;;;8.49;100.00;99801.57;1741473;81;21621;-57
2021/04/18 09:48:12;;;;;;;15.30;11.75;;;;;;;8.49;100.00;99793.51;1740910;80;20959;-59
2021/04/18 09:58:30;;;;;;;19.20;13.65;;;;;;;8.55;100.00;99795.94;1788863;78;22798;-58
2021/04/18 10:01:00;;;;;;;19.82;14.95;;;;;;;8.51;100.00;99803.24;1770660;80;20950;-60
2021/04/18 10:03:38;;;;;;;26.50;15.53;;;;;;;8.52;100.00;99802.77;1755015;80;21203;-58
2021/04/18 10:06:10;;;;;;;16.10;13.15;;;;;;;8.52;100.00;99801.42;1721493;82;21006;-60
2021/04/18 10:08:39;;;;;;;18.42;13.98;;;;;;;8.53;100.00;99803.20;1692078;83;21042;-60
2021/04/18 10:11:12;;;;;;;20.27;14.95;;;;;;;8.53;100.00;99804.08;1721160;82;21075;-56
2021/04/18 10:13:56;;;;;;;19.70;13.62;;;;;;;8.56;100.00;99805.75;1709408;82;20982;-57
2021/04/18 10:19:24;;;;;;;21.37;15.95;;;;;;;8.63;100.00;99809.95;1808323;78;22690;-59
2021/04/18 10:22:09;;;;;;;18.17;15.20;;;;;;;8.61;100.00;99812.68;1778817;79;21879;-58
2021/04/18 10:24:50;;;;;;;18.40;15.00;;;;;;;8.66;100.00;99817.87;1773559;79;21430;-60
2021/04/18 10:27:21;;;;;;;15.95;13.30;;;;;;;8.68;100.00;99817.33;1773889;79;21678;-59
2021/04/18 10:29:50;;;;;;;19.77;14.65;;;;;;;8.69;100.00;99827.17;1774944;79;21589;-60
2021/04/18 10:32:20;;;;;;;16.73;13.28;;;;;;;8.75;100.00;99822.88;1773936;79;20995;-59
2021/04/18 10:34:51;;;;;;;18.20;14.05;;;;;;;8.75;100.00;99822.88;1775479;79;20979;-60
2021/04/18 10:37:20;;;;;;;21.45;15.38;;;;;;;8.76;100.00;99828.66;1773863;79;21154;-60
2021/04/18 10:39:48;;;;;;;18.32;14.90;;;;;;;8.77;100.00;99833.56;1774015;79;21549;-59
2021/04/18 10:42:16;;;;;;;19.10;14.60;;;;;;;8.75;100.00;99824.22;1774202;79;21232;-60
2021/04/18 10:44:46;;;;;;;23.12;16.57;;;;;;;8.74;100.00;99826.52;1774379;79;21555;-60
2021/04/18 10:47:18;;;;;;;16.85;14.53;;;;;;;8.73;100.00;99826.08;1775600;79;21110;-59
2021/04/18 10:49:49;;;;;;;19.82;14.65;;;;;;;8.76;100.00;99830.00;1775463;79;21365;-59
2021/04/18 10:52:18;;;;;;;17.12;15.00;;;;;;;8.79;100.00;99824.50;1775185;79;21042;-57
2021/04/18 10:54:47;;;;;;;18.00;15.08;;;;;;;8.82;100.00;99824.36;1774982;79;20948;-56
2021/04/18 10:57:16;;;;;;;20.50;15.00;;;;;;;8.89;100.00;99824.53;1775107;79;21058;-56
2021/04/18 10:59:45;;;;;;;19.00;14.73;;;;;;;8.98;100.00;99823.72;1775275;79;20968;-56
2021/04/18 11:02:13;;;;;;;16.65;14.33;;;;;;;9.09;100.00;99826.81;1775588;79;21553;-54
2021/04/18 11:04:42;;;;;;;18.85;14.45;;;;;;;9.20;100.00;99821.84;1774936;79;21148;-60
2021/04/18 11:07:10;;;;;;;18.00;13.30;;;;;;;9.32;100.00;99826.72;1771562;79;21178;-58
2021/04/18 11:09:38;;;;;;;16.12;13.25;;;;;;;9.44;100.00;99818.09;1773202;79;21123;-60
2021/04/18 11:12:19;;;;;;;14.20;12.37;;;;;;;9.51;100.00;99817.81;1774649;79;20978;-51
2021/04/18 11:14:48;;;;;;;15.95;12.93;;;;;;;9.60;100.00;99820.09;1774740;79;21389;-52
2021/04/18 11:17:16;;;;;;;15.53;13.40;;;;;;;9.68;100.00;99823.30;1773588;79;21187;-52
2021/04/18 11:19:45;;;;;;;12.15;10.85;;;;;;;9.75;99.79;99818.06;1764081;79;20993;-52
2021/04/18 11:22:13;;;;;;;14.68;11.50;;;;;;;9.79;98.11;99818.30;1764096;79;21085;-51
2021/04/18 11:24:41;;;;;;;12.47;11.12;;;;;;;9.86;97.85;99813.52;1764359;79;21203;-52
2021/04/18 11:27:09;;;;;;;12.65;10.82;;;;;;;9.92;97.37;99815.45;1763621;79;21419;-51
2021/04/18 11:29:40;;;;;;;11.65;9.95;;;;;;;10.00;96.75;99816.91;1762371;79;21028;-51
2021/04/18 11:32:11;;;;;;;13.13;11.08;;;;;;;10.05;94.92;99822.95;1762674;79;21144;-52
2021/04/18 11:34:40;;;;;;;12.78;10.78;;;;;;;10.11;95.15;99824.00;1762304;80;20943;-52
2021/04/18 11:37:09;;;;;;;11.50;10.28;;;;;;;10.20;95.55;99816.84;1761956;79;21342;-52
2021/04/18 11:39:38;;;;;;;12.58;10.32;;;;;;;10.33;94.80;99822.53;1763564;79;22801;-51
2021/04/18 11:42:06;;;;;;;12.82;10.48;;;;;;;10.45;93.90;99824.19;1763915;79;21136;-52
2021/04/18 11:44:34;;;;;;;12.30;9.50;;;;;;;10.52;93.38;99826.58;1763789;79;20990;-51
2021/04/18 11:47:02;;;;;;;9.90;8.88;;;;;;;10.59;93.15;99827.53;1763223;80;21129;-51